Sheldons Grove, Illinois
Current Conditions -  °F | °C
As of 10:35 AM on Monday 24 Nov 2014 (Local Time) from KIJX Reporting Station
Overcast Overcast  
Wind Chill: 23°   Ceiling: 2300
Heat Index: 35°   Visibility: 10mi
Dew Point: 27°   Wind: 25mph
Humidity: 73%   Direction: 260°W
Pressure: 29.6"   Gusts: 32mph
Location:  40.1574°N, 90.35°W
Report Text: KIJX 241635Z AUTO 26022G28KT 10SM BKN023 OVC028 02/M03 A2960 RMK AO2 T00171027
Loading
Personal Weather Stations






























Interactive Weather Map New forecast layout! Learn more

10-Day Weather Forecast

Advertisements
Track Severe Weather on mobile